sensor_id;sensor_type;location;lat;lon;timestamp;P1;durP1;ratioP1;P2;durP2;ratioP2
27402;SDS011;14862;49.494;8.530;2022-12-07T00:00:49;18.90;;;11.95;;
27402;SDS011;14862;49.494;8.530;2022-12-07T00:03:14;14.35;;;10.60;;
27402;SDS011;14862;49.494;8.530;2022-12-07T00:05:39;16.33;;;10.23;;
27402;SDS011;14862;49.494;8.530;2022-12-07T00:08:05;21.95;;;10.82;;
27402;SDS011;14862;49.494;8.530;2022-12-07T00:10:30;18.48;;;10.13;;
27402;SDS011;14862;49.494;8.530;2022-12-07T00:12:57;14.73;;;9.50;;
27402;SDS011;14862;49.494;8.530;2022-12-07T00:15:23;16.30;;;9.07;;
27402;SDS011;14862;49.494;8.530;2022-12-07T00:17:48;14.80;;;9.05;;
27402;SDS011;14862;49.494;8.530;2022-12-07T00:20:13;14.98;;;9.10;;
27402;SDS011;14862;49.494;8.530;2022-12-07T00:22:38;13.67;;;9.30;;
27402;SDS011;14862;49.494;8.530;2022-12-07T00:25:04;14.30;;;8.43;;
27402;SDS011;14862;49.494;8.530;2022-12-07T00:27:29;14.07;;;9.40;;
27402;SDS011;14862;49.494;8.530;2022-12-07T00:29:54;15.45;;;8.55;;
27402;SDS011;14862;49.494;8.530;2022-12-07T00:32:19;13.95;;;8.90;;
27402;SDS011;14862;49.494;8.530;2022-12-07T00:34:45;15.77;;;10.25;;
27402;SDS011;14862;49.494;8.530;2022-12-07T00:37:10;15.30;;;9.52;;
27402;SDS011;14862;49.494;8.530;2022-12-07T00:39:37;14.52;;;9.07;;
27402;SDS011;14862;49.494;8.530;2022-12-07T00:42:02;19.48;;;11.02;;
27402;SDS011;14862;49.494;8.530;2022-12-07T00:44:27;16.92;;;9.40;;
27402;SDS011;14862;49.494;8.530;2022-12-07T00:46:53;16.55;;;9.63;;
27402;SDS011;14862;49.494;8.530;2022-12-07T00:49:18;16.55;;;9.88;;
27402;SDS011;14862;49.494;8.530;2022-12-07T00:51:43;14.55;;;9.32;;
27402;SDS011;14862;49.494;8.530;2022-12-07T00:54:08;19.33;;;10.13;;
27402;SDS011;14862;49.494;8.530;2022-12-07T00:56:34;17.08;;;10.23;;
27402;SDS011;14862;49.494;8.530;2022-12-07T00:59:00;18.98;;;10.70;;
27402;SDS011;14862;49.494;8.530;2022-12-07T01:01:26;22.08;;;11.05;;
27402;SDS011;14862;49.494;8.530;2022-12-07T01:03:52;17.23;;;10.65;;
27402;SDS011;14862;49.494;8.530;2022-12-07T01:06:18;17.42;;;10.20;;
27402;SDS011;14862;49.494;8.530;2022-12-07T01:08:44;16.10;;;9.45;;
27402;SDS011;14862;49.494;8.530;2022-12-07T01:11:11;17.63;;;10.02;;
27402;SDS011;14862;49.494;8.530;2022-12-07T01:13:36;16.58;;;9.98;;
27402;SDS011;14862;49.494;8.530;2022-12-07T01:16:03;15.25;;;10.10;;
27402;SDS011;14862;49.494;8.530;2022-12-07T01:18:29;20.63;;;10.05;;
27402;SDS011;14862;49.494;8.530;2022-12-07T01:21:01;17.25;;;9.18;;
27402;SDS011;14862;49.494;8.530;2022-12-07T01:23:27;15.55;;;9.40;;
27402;SDS011;14862;49.494;8.530;2022-12-07T01:25:59;16.20;;;10.23;;
27402;SDS011;14862;49.494;8.530;2022-12-07T01:28:25;16.35;;;10.38;;
27402;SDS011;14862;49.494;8.530;2022-12-07T01:33:46;15.68;;;10.00;;
27402;SDS011;14862;49.494;8.530;2022-12-07T01:36:22;18.42;;;10.30;;
27402;SDS011;14862;49.494;8.530;2022-12-07T01:38:48;16.40;;;9.70;;
27402;SDS011;14862;49.494;8.530;2022-12-07T01:41:16;15.60;;;9.57;;
27402;SDS011;14862;49.494;8.530;2022-12-07T01:46:25;16.90;;;9.57;;
27402;SDS011;14862;49.494;8.530;2022-12-07T01:48:51;17.75;;;9.82;;
27402;SDS011;14862;49.494;8.530;2022-12-07T01:51:16;16.17;;;8.68;;
27402;SDS011;14862;49.494;8.530;2022-12-07T01:53:42;18.15;;;10.35;;
27402;SDS011;14862;49.494;8.530;2022-12-07T01:56:09;17.88;;;10.15;;
27402;SDS011;14862;49.494;8.530;2022-12-07T01:58:34;14.13;;;9.15;;
27402;SDS011;14862;49.494;8.530;2022-12-07T02:01:00;14.60;;;9.77;;
27402;SDS011;14862;49.494;8.530;2022-12-07T02:03:36;16.88;;;9.32;;
27402;SDS011;14862;49.494;8.530;2022-12-07T02:06:03;17.00;;;10.30;;
27402;SDS011;14862;49.494;8.530;2022-12-07T02:08:29;17.83;;;9.60;;
27402;SDS011;14862;49.494;8.530;2022-12-07T02:10:54;16.45;;;9.10;;
27402;SDS011;14862;49.494;8.530;2022-12-07T02:13:21;15.60;;;10.05;;
27402;SDS011;14862;49.494;8.530;2022-12-07T02:20:49;17.13;;;10.03;;
27402;SDS011;14862;49.494;8.530;2022-12-07T02:23:23;16.50;;;9.38;;
27402;SDS011;14862;49.494;8.530;2022-12-07T02:28:27;15.00;;;8.50;;
27402;SDS011;14862;49.494;8.530;2022-12-07T02:30:54;18.48;;;9.45;;
27402;SDS011;14862;49.494;8.530;2022-12-07T02:33:25;14.98;;;9.48;;
27402;SDS011;14862;49.494;8.530;2022-12-07T02:35:59;12.85;;;8.32;;
27402;SDS011;14862;49.494;8.530;2022-12-07T02:38:31;15.52;;;9.32;;
27402;SDS011;14862;49.494;8.530;2022-12-07T02:42:00;12.63;;;8.32;;
27402;SDS011;14862;49.494;8.530;2022-12-07T02:43:54;16.38;;;8.85;;
27402;SDS011;14862;49.494;8.530;2022-12-07T02:46:23;19.15;;;8.77;;
27402;SDS011;14862;49.494;8.530;2022-12-07T02:48:49;12.20;;;8.68;;
27402;SDS011;14862;49.494;8.530;2022-12-07T02:51:14;13.10;;;8.65;;
27402;SDS011;14862;49.494;8.530;2022-12-07T02:53:42;12.85;;;9.02;;
27402;SDS011;14862;49.494;8.530;2022-12-07T03:06:49;15.85;;;8.77;;
27402;SDS011;14862;49.494;8.530;2022-12-07T03:09:20;15.23;;;8.23;;
27402;SDS011;14862;49.494;8.530;2022-12-07T03:11:50;14.55;;;8.93;;
27402;SDS011;14862;49.494;8.530;2022-12-07T03:14:24;13.07;;;8.57;;
27402;SDS011;14862;49.494;8.530;2022-12-07T03:17:01;14.32;;;8.68;;
27402;SDS011;14862;49.494;8.530;2022-12-07T03:19:27;14.68;;;9.13;;
27402;SDS011;14862;49.494;8.530;2022-12-07T03:21:55;13.82;;;8.95;;
27402;SDS011;14862;49.494;8.530;2022-12-07T03:24:22;15.25;;;8.82;;
27402;SDS011;14862;49.494;8.530;2022-12-07T03:26:53;18.52;;;8.90;;
27402;SDS011;14862;49.494;8.530;2022-12-07T03:29:43;14.43;;;8.48;;
27402;SDS011;14862;49.494;8.530;2022-12-07T03:32:08;14.13;;;8.85;;
27402;SDS011;14862;49.494;8.530;2022-12-07T03:34:39;15.10;;;8.38;;
27402;SDS011;14862;49.494;8.530;2022-12-07T03:37:15;11.05;;;8.23;;
27402;SDS011;14862;49.494;8.530;2022-12-07T03:39:46;13.23;;;8.30;;
27402;SDS011;14862;49.494;8.530;2022-12-07T03:42:15;16.73;;;9.48;;
27402;SDS011;14862;49.494;8.530;2022-12-07T03:44:40;15.30;;;9.00;;
27402;SDS011;14862;49.494;8.530;2022-12-07T03:47:13;13.18;;;8.82;;
27402;SDS011;14862;49.494;8.530;2022-12-07T03:49:45;12.80;;;7.78;;
27402;SDS011;14862;49.494;8.530;2022-12-07T03:52:30;13.40;;;8.25;;
27402;SDS011;14862;49.494;8.530;2022-12-07T03:57:25;11.18;;;7.65;;
27402;SDS011;14862;49.494;8.530;2022-12-07T03:59:51;13.68;;;8.48;;
27402;SDS011;14862;49.494;8.530;2022-12-07T04:02:18;12.27;;;8.10;;
27402;SDS011;14862;49.494;8.530;2022-12-07T04:04:44;15.63;;;8.45;;
27402;SDS011;14862;49.494;8.530;2022-12-07T04:07:10;14.52;;;9.73;;
27402;SDS011;14862;49.494;8.530;2022-12-07T04:09:35;13.13;;;8.27;;
27402;SDS011;14862;49.494;8.530;2022-12-07T04:12:00;11.88;;;8.10;;
27402;SDS011;14862;49.494;8.530;2022-12-07T04:14:26;13.90;;;8.73;;
27402;SDS011;14862;49.494;8.530;2022-12-07T04:16:52;13.45;;;8.38;;
27402;SDS011;14862;49.494;8.530;2022-12-07T04:19:19;11.18;;;7.55;;
27402;SDS011;14862;49.494;8.530;2022-12-07T04:21:45;13.43;;;8.05;;
27402;SDS011;14862;49.494;8.530;2022-12-07T04:24:11;13.50;;;9.18;;
27402;SDS011;14862;49.494;8.530;2022-12-07T04:26:37;15.38;;;8.63;;
27402;SDS011;14862;49.494;8.530;2022-12-07T04:29:02;14.55;;;9.10;;
27402;SDS011;14862;49.494;8.530;2022-12-07T04:31:27;13.25;;;8.68;;
27402;SDS011;14862;49.494;8.530;2022-12-07T04:33:52;11.77;;;7.95;;
27402;SDS011;14862;49.494;8.530;2022-12-07T04:36:18;14.88;;;8.75;;
27402;SDS011;14862;49.494;8.530;2022-12-07T04:38:44;14.05;;;8.32;;
27402;SDS011;14862;49.494;8.530;2022-12-07T04:41:10;13.55;;;8.43;;
27402;SDS011;14862;49.494;8.530;2022-12-07T04:43:35;12.80;;;8.50;;
27402;SDS011;14862;49.494;8.530;2022-12-07T04:46:01;13.02;;;8.80;;
27402;SDS011;14862;49.494;8.530;2022-12-07T04:48:26;18.48;;;10.07;;
27402;SDS011;14862;49.494;8.530;2022-12-07T04:50:51;16.20;;;10.05;;
27402;SDS011;14862;49.494;8.530;2022-12-07T04:53:17;18.73;;;10.80;;
27402;SDS011;14862;49.494;8.530;2022-12-07T04:55:42;14.13;;;8.90;;
27402;SDS011;14862;49.494;8.530;2022-12-07T04:58:08;14.48;;;9.82;;
27402;SDS011;14862;49.494;8.530;2022-12-07T05:00:33;13.30;;;8.63;;
27402;SDS011;14862;49.494;8.530;2022-12-07T05:02:58;14.88;;;9.05;;
27402;SDS011;14862;49.494;8.530;2022-12-07T05:05:24;13.00;;;8.60;;
27402;SDS011;14862;49.494;8.530;2022-12-07T05:07:49;16.58;;;9.13;;
27402;SDS011;14862;49.494;8.530;2022-12-07T05:10:14;14.68;;;9.57;;
27402;SDS011;14862;49.494;8.530;2022-12-07T05:12:40;15.57;;;8.82;;
27402;SDS011;14862;49.494;8.530;2022-12-07T05:15:05;16.20;;;9.63;;
27402;SDS011;14862;49.494;8.530;2022-12-07T05:17:30;13.88;;;9.30;;
27402;SDS011;14862;49.494;8.530;2022-12-07T05:19:55;14.10;;;9.77;;
27402;SDS011;14862;49.494;8.530;2022-12-07T05:22:21;15.00;;;9.02;;
27402;SDS011;14862;49.494;8.530;2022-12-07T05:24:46;16.55;;;9.60;;
27402;SDS011;14862;49.494;8.530;2022-12-07T05:27:11;14.27;;;9.15;;
27402;SDS011;14862;49.494;8.530;2022-12-07T05:29:36;15.88;;;9.50;;
27402;SDS011;14862;49.494;8.530;2022-12-07T05:32:02;17.47;;;9.73;;
27402;SDS011;14862;49.494;8.530;2022-12-07T05:34:27;13.40;;;9.05;;
27402;SDS011;14862;49.494;8.530;2022-12-07T05:36:52;14.37;;;8.80;;
27402;SDS011;14862;49.494;8.530;2022-12-07T05:39:17;15.95;;;8.77;;
27402;SDS011;14862;49.494;8.530;2022-12-07T05:41:42;16.60;;;8.70;;
27402;SDS011;14862;49.494;8.530;2022-12-07T05:44:26;15.07;;;8.70;;
27402;SDS011;14862;49.494;8.530;2022-12-07T05:46:52;14.10;;;8.85;;
27402;SDS011;14862;49.494;8.530;2022-12-07T05:49:17;15.63;;;8.48;;
27402;SDS011;14862;49.494;8.530;2022-12-07T05:51:42;14.80;;;9.35;;
27402;SDS011;14862;49.494;8.530;2022-12-07T05:54:08;14.38;;;9.30;;
27402;SDS011;14862;49.494;8.530;2022-12-07T05:56:33;17.63;;;9.05;;
27402;SDS011;14862;49.494;8.530;2022-12-07T05:58:58;16.10;;;9.50;;
27402;SDS011;14862;49.494;8.530;2022-12-07T06:01:42;13.35;;;8.52;;
27402;SDS011;14862;49.494;8.530;2022-12-07T06:04:08;15.75;;;9.57;;
27402;SDS011;14862;49.494;8.530;2022-12-07T06:06:34;14.30;;;9.05;;
27402;SDS011;14862;49.494;8.530;2022-12-07T06:08:59;18.70;;;9.20;;
27402;SDS011;14862;49.494;8.530;2022-12-07T06:11:24;17.70;;;9.85;;
27402;SDS011;14862;49.494;8.530;2022-12-07T06:14:08;14.13;;;9.25;;
27402;SDS011;14862;49.494;8.530;2022-12-07T06:16:33;14.52;;;9.02;;
27402;SDS011;14862;49.494;8.530;2022-12-07T06:18:58;16.48;;;10.52;;
27402;SDS011;14862;49.494;8.530;2022-12-07T06:21:24;17.88;;;11.30;;
27402;SDS011;14862;49.494;8.530;2022-12-07T06:23:51;15.20;;;10.18;;
27402;SDS011;14862;49.494;8.530;2022-12-07T06:26:16;18.73;;;12.50;;
27402;SDS011;14862;49.494;8.530;2022-12-07T06:28:41;18.40;;;11.32;;
27402;SDS011;14862;49.494;8.530;2022-12-07T06:31:07;19.63;;;11.85;;
27402;SDS011;14862;49.494;8.530;2022-12-07T06:33:32;18.60;;;11.30;;
27402;SDS011;14862;49.494;8.530;2022-12-07T06:35:57;17.90;;;10.73;;
27402;SDS011;14862;49.494;8.530;2022-12-07T06:38:22;17.60;;;11.23;;
27402;SDS011;14862;49.494;8.530;2022-12-07T06:40:48;21.67;;;11.88;;
27402;SDS011;14862;49.494;8.530;2022-12-07T06:43:13;22.70;;;12.07;;
27402;SDS011;14862;49.494;8.530;2022-12-07T06:45:38;18.02;;;11.00;;
27402;SDS011;14862;49.494;8.530;2022-12-07T06:48:05;21.25;;;11.38;;
27402;SDS011;14862;49.494;8.530;2022-12-07T06:50:30;20.90;;;12.18;;
27402;SDS011;14862;49.494;8.530;2022-12-07T06:52:55;21.48;;;12.63;;
27402;SDS011;14862;49.494;8.530;2022-12-07T06:55:20;22.08;;;11.18;;
27402;SDS011;14862;49.494;8.530;2022-12-07T06:57:45;20.40;;;11.60;;
27402;SDS011;14862;49.494;8.530;2022-12-07T07:00:11;17.67;;;11.03;;
27402;SDS011;14862;49.494;8.530;2022-12-07T07:02:36;16.67;;;10.38;;
27402;SDS011;14862;49.494;8.530;2022-12-07T07:05:02;18.67;;;11.23;;
27402;SDS011;14862;49.494;8.530;2022-12-07T07:07:27;19.73;;;11.75;;
27402;SDS011;14862;49.494;8.530;2022-12-07T07:09:53;21.75;;;11.10;;
27402;SDS011;14862;49.494;8.530;2022-12-07T07:12:18;18.13;;;11.60;;
27402;SDS011;14862;49.494;8.530;2022-12-07T07:14:43;19.70;;;12.38;;
27402;SDS011;14862;49.494;8.530;2022-12-07T07:17:08;20.33;;;11.30;;
27402;SDS011;14862;49.494;8.530;2022-12-07T07:19:34;18.85;;;11.00;;
27402;SDS011;14862;49.494;8.530;2022-12-07T07:21:59;16.65;;;10.85;;
27402;SDS011;14862;49.494;8.530;2022-12-07T07:24:24;23.70;;;12.20;;
27402;SDS011;14862;49.494;8.530;2022-12-07T07:26:49;18.40;;;12.27;;
27402;SDS011;14862;49.494;8.530;2022-12-07T07:29:15;17.52;;;11.32;;
27402;SDS011;14862;49.494;8.530;2022-12-07T07:31:40;17.70;;;11.32;;
27402;SDS011;14862;49.494;8.530;2022-12-07T07:34:05;19.35;;;11.63;;
27402;SDS011;14862;49.494;8.530;2022-12-07T07:36:30;19.83;;;12.20;;
27402;SDS011;14862;49.494;8.530;2022-12-07T07:38:55;19.35;;;11.73;;
27402;SDS011;14862;49.494;8.530;2022-12-07T07:41:21;17.10;;;10.75;;
27402;SDS011;14862;49.494;8.530;2022-12-07T07:43:46;17.70;;;10.65;;
27402;SDS011;14862;49.494;8.530;2022-12-07T07:46:11;17.73;;;11.57;;
27402;SDS011;14862;49.494;8.530;2022-12-07T07:48:36;17.17;;;10.93;;
27402;SDS011;14862;49.494;8.530;2022-12-07T07:51:04;17.55;;;11.05;;
27402;SDS011;14862;49.494;8.530;2022-12-07T07:53:29;16.08;;;11.00;;
27402;SDS011;14862;49.494;8.530;2022-12-07T07:55:55;18.30;;;11.75;;
27402;SDS011;14862;49.494;8.530;2022-12-07T07:58:21;22.92;;;11.00;;
27402;SDS011;14862;49.494;8.530;2022-12-07T08:00:46;15.68;;;11.35;;
27402;SDS011;14862;49.494;8.530;2022-12-07T08:03:12;19.25;;;11.80;;
27402;SDS011;14862;49.494;8.530;2022-12-07T08:05:37;17.05;;;10.95;;
27402;SDS011;14862;49.494;8.530;2022-12-07T08:08:03;16.92;;;11.10;;
27402;SDS011;14862;49.494;8.530;2022-12-07T08:10:28;16.63;;;10.20;;
27402;SDS011;14862;49.494;8.530;2022-12-07T08:12:53;17.70;;;10.48;;
27402;SDS011;14862;49.494;8.530;2022-12-07T08:15:39;20.92;;;11.60;;
27402;SDS011;14862;49.494;8.530;2022-12-07T08:18:04;17.23;;;11.93;;
27402;SDS011;14862;49.494;8.530;2022-12-07T08:20:30;16.23;;;10.75;;
27402;SDS011;14862;49.494;8.530;2022-12-07T08:22:55;19.35;;;10.90;;
27402;SDS011;14862;49.494;8.530;2022-12-07T08:25:21;16.45;;;10.93;;
27402;SDS011;14862;49.494;8.530;2022-12-07T08:27:49;17.48;;;11.82;;
27402;SDS011;14862;49.494;8.530;2022-12-07T08:30:15;16.70;;;10.93;;
27402;SDS011;14862;49.494;8.530;2022-12-07T08:32:40;17.20;;;10.10;;
27402;SDS011;14862;49.494;8.530;2022-12-07T08:35:06;20.10;;;10.50;;
27402;SDS011;14862;49.494;8.530;2022-12-07T08:37:32;17.88;;;12.07;;
27402;SDS011;14862;49.494;8.530;2022-12-07T08:39:57;17.88;;;11.18;;
27402;SDS011;14862;49.494;8.530;2022-12-07T08:42:23;20.27;;;11.77;;
27402;SDS011;14862;49.494;8.530;2022-12-07T08:44:52;15.23;;;11.20;;
27402;SDS011;14862;49.494;8.530;2022-12-07T08:47:17;18.13;;;11.13;;
27402;SDS011;14862;49.494;8.530;2022-12-07T08:49:43;17.10;;;11.30;;
27402;SDS011;14862;49.494;8.530;2022-12-07T08:52:10;16.23;;;10.82;;
27402;SDS011;14862;49.494;8.530;2022-12-07T08:54:36;22.90;;;11.40;;
27402;SDS011;14862;49.494;8.530;2022-12-07T08:57:03;20.98;;;12.50;;
27402;SDS011;14862;49.494;8.530;2022-12-07T08:59:29;19.08;;;11.38;;
27402;SDS011;14862;49.494;8.530;2022-12-07T09:01:54;20.45;;;11.85;;
27402;SDS011;14862;49.494;8.530;2022-12-07T09:04:19;17.42;;;11.95;;
27402;SDS011;14862;49.494;8.530;2022-12-07T09:06:45;17.33;;;11.82;;
27402;SDS011;14862;49.494;8.530;2022-12-07T09:09:11;19.20;;;11.80;;
27402;SDS011;14862;49.494;8.530;2022-12-07T09:11:36;19.73;;;11.98;;
27402;SDS011;14862;49.494;8.530;2022-12-07T09:14:01;20.48;;;11.80;;
27402;SDS011;14862;49.494;8.530;2022-12-07T09:16:27;16.92;;;11.30;;
27402;SDS011;14862;49.494;8.530;2022-12-07T09:18:52;18.17;;;11.60;;
27402;SDS011;14862;49.494;8.530;2022-12-07T09:21:17;17.45;;;11.50;;
27402;SDS011;14862;49.494;8.530;2022-12-07T09:23:42;18.25;;;11.98;;
27402;SDS011;14862;49.494;8.530;2022-12-07T09:26:08;22.60;;;12.02;;
27402;SDS011;14862;49.494;8.530;2022-12-07T09:28:33;18.58;;;11.25;;
27402;SDS011;14862;49.494;8.530;2022-12-07T09:30:58;16.48;;;10.45;;
27402;SDS011;14862;49.494;8.530;2022-12-07T09:33:24;19.00;;;10.90;;
27402;SDS011;14862;49.494;8.530;2022-12-07T09:35:49;18.52;;;10.35;;
27402;SDS011;14862;49.494;8.530;2022-12-07T09:38:15;16.95;;;11.30;;
27402;SDS011;14862;49.494;8.530;2022-12-07T09:40:41;16.38;;;10.73;;
27402;SDS011;14862;49.494;8.530;2022-12-07T09:43:15;18.92;;;10.95;;
27402;SDS011;14862;49.494;8.530;2022-12-07T09:45:41;18.02;;;11.07;;
27402;SDS011;14862;49.494;8.530;2022-12-07T09:48:11;21.98;;;10.68;;
27402;SDS011;14862;49.494;8.530;2022-12-07T09:50:40;16.63;;;10.65;;
27402;SDS011;14862;49.494;8.530;2022-12-07T09:53:10;14.07;;;9.48;;
27402;SDS011;14862;49.494;8.530;2022-12-07T09:55:38;14.80;;;9.60;;
27402;SDS011;14862;49.494;8.530;2022-12-07T09:58:05;18.00;;;10.32;;
27402;SDS011;14862;49.494;8.530;2022-12-07T10:00:31;16.05;;;9.45;;
27402;SDS011;14862;49.494;8.530;2022-12-07T10:02:57;15.52;;;10.07;;
27402;SDS011;14862;49.494;8.530;2022-12-07T10:05:24;14.10;;;9.63;;
27402;SDS011;14862;49.494;8.530;2022-12-07T10:07:51;15.95;;;9.48;;
27402;SDS011;14862;49.494;8.530;2022-12-07T10:10:24;12.65;;;8.40;;
27402;SDS011;14862;49.494;8.530;2022-12-07T10:13:00;14.55;;;9.52;;
27402;SDS011;14862;49.494;8.530;2022-12-07T10:18:15;16.05;;;9.73;;
27402;SDS011;14862;49.494;8.530;2022-12-07T10:20:41;14.57;;;8.65;;
27402;SDS011;14862;49.494;8.530;2022-12-07T10:23:13;13.90;;;9.20;;
27402;SDS011;14862;49.494;8.530;2022-12-07T10:25:39;14.15;;;8.43;;
27402;SDS011;14862;49.494;8.530;2022-12-07T10:28:10;17.52;;;10.13;;
27402;SDS011;14862;49.494;8.530;2022-12-07T10:33:27;13.65;;;8.40;;
27402;SDS011;14862;49.494;8.530;2022-12-07T10:35:54;14.85;;;9.27;;
27402;SDS011;14862;49.494;8.530;2022-12-07T10:38:19;15.32;;;8.90;;
27402;SDS011;14862;49.494;8.530;2022-12-07T10:40:44;13.75;;;8.95;;
27402;SDS011;14862;49.494;8.530;2022-12-07T10:48:30;16.25;;;10.43;;
27402;SDS011;14862;49.494;8.530;2022-12-07T10:51:05;11.23;;;8.85;;
27402;SDS011;14862;49.494;8.530;2022-12-07T10:53:42;15.90;;;9.48;;
27402;SDS011;14862;49.494;8.530;2022-12-07T10:59:06;16.38;;;9.70;;
27402;SDS011;14862;49.494;8.530;2022-12-07T11:04:14;18.40;;;10.13;;
27402;SDS011;14862;49.494;8.530;2022-12-07T11:14:40;13.30;;;8.80;;
27402;SDS011;14862;49.494;8.530;2022-12-07T11:17:32;19.27;;;9.60;;
27402;SDS011;14862;49.494;8.530;2022-12-07T11:27:40;13.77;;;9.10;;
27402;SDS011;14862;49.494;8.530;2022-12-07T11:38:17;15.48;;;8.10;;
27402;SDS011;14862;49.494;8.530;2022-12-07T11:40:45;12.63;;;7.30;;
27402;SDS011;14862;49.494;8.530;2022-12-07T11:45:37;13.07;;;7.38;;
27402;SDS011;14862;49.494;8.530;2022-12-07T11:48:24;16.13;;;8.02;;
27402;SDS011;14862;49.494;8.530;2022-12-07T11:50:56;13.05;;;7.75;;
27402;SDS011;14862;49.494;8.530;2022-12-07T11:58:42;16.00;;;7.97;;
27402;SDS011;14862;49.494;8.530;2022-12-07T12:03:54;9.45;;;6.72;;
27402;SDS011;14862;49.494;8.530;2022-12-07T12:06:20;17.88;;;6.22;;
27402;SDS011;14862;49.494;8.530;2022-12-07T12:21:29;10.88;;;6.75;;
27402;SDS011;14862;49.494;8.530;2022-12-07T12:26:24;12.35;;;5.70;;
27402;SDS011;14862;49.494;8.530;2022-12-07T12:31:48;10.05;;;5.38;;
27402;SDS011;14862;49.494;8.530;2022-12-07T12:34:31;10.50;;;4.97;;
27402;SDS011;14862;49.494;8.530;2022-12-07T12:36:57;10.48;;;6.15;;
27402;SDS011;14862;49.494;8.530;2022-12-07T12:39:23;10.90;;;5.20;;
27402;SDS011;14862;49.494;8.530;2022-12-07T12:46:46;9.43;;;5.35;;
27402;SDS011;14862;49.494;8.530;2022-12-07T12:51:41;13.18;;;6.03;;
27402;SDS011;14862;49.494;8.530;2022-12-07T12:54:20;9.90;;;5.40;;
27402;SDS011;14862;49.494;8.530;2022-12-07T12:56:47;16.23;;;6.07;;
27402;SDS011;14862;49.494;8.530;2022-12-07T12:59:23;14.00;;;5.93;;
27402;SDS011;14862;49.494;8.530;2022-12-07T13:01:50;12.75;;;5.03;;
27402;SDS011;14862;49.494;8.530;2022-12-07T13:04:29;11.10;;;5.18;;
27402;SDS011;14862;49.494;8.530;2022-12-07T13:06:59;12.40;;;5.17;;
27402;SDS011;14862;49.494;8.530;2022-12-07T13:09:28;9.88;;;4.65;;
27402;SDS011;14862;49.494;8.530;2022-12-07T13:11:59;10.68;;;5.93;;
27402;SDS011;14862;49.494;8.530;2022-12-07T13:17:04;9.55;;;5.93;;
27402;SDS011;14862;49.494;8.530;2022-12-07T13:27:43;12.23;;;4.03;;
27402;SDS011;14862;49.494;8.530;2022-12-07T13:30:13;10.68;;;4.40;;
27402;SDS011;14862;49.494;8.530;2022-12-07T13:32:39;9.82;;;4.30;;
27402;SDS011;14862;49.494;8.530;2022-12-07T13:35:26;10.27;;;4.72;;
27402;SDS011;14862;49.494;8.530;2022-12-07T13:37:49;8.38;;;4.60;;
27402;SDS011;14862;49.494;8.530;2022-12-07T13:40:19;8.35;;;3.40;;
27402;SDS011;14862;49.494;8.530;2022-12-07T13:42:44;6.28;;;3.67;;
27402;SDS011;14862;49.494;8.530;2022-12-07T13:45:20;6.38;;;3.60;;
27402;SDS011;14862;49.494;8.530;2022-12-07T13:47:48;7.03;;;3.75;;
27402;SDS011;14862;49.494;8.530;2022-12-07T13:50:24;5.03;;;3.28;;
27402;SDS011;14862;49.494;8.530;2022-12-07T13:52:49;9.00;;;4.78;;
27402;SDS011;14862;49.494;8.530;2022-12-07T13:55:15;10.00;;;4.63;;
27402;SDS011;14862;49.494;8.530;2022-12-07T13:57:41;5.60;;;3.22;;
27402;SDS011;14862;49.494;8.530;2022-12-07T14:00:13;5.32;;;3.38;;
27402;SDS011;14862;49.494;8.530;2022-12-07T14:02:53;6.78;;;3.70;;
27402;SDS011;14862;49.494;8.530;2022-12-07T14:05:26;8.75;;;3.78;;
27402;SDS011;14862;49.494;8.530;2022-12-07T14:08:04;6.30;;;3.78;;
27402;SDS011;14862;49.494;8.530;2022-12-07T14:10:37;11.10;;;4.10;;
27402;SDS011;14862;49.494;8.530;2022-12-07T14:15:44;9.40;;;3.97;;
27402;SDS011;14862;49.494;8.530;2022-12-07T14:18:30;11.00;;;4.72;;
27402;SDS011;14862;49.494;8.530;2022-12-07T14:23:29;7.82;;;4.05;;
27402;SDS011;14862;49.494;8.530;2022-12-07T14:26:03;6.70;;;4.30;;
27402;SDS011;14862;49.494;8.530;2022-12-07T14:28:33;11.48;;;4.57;;
27402;SDS011;14862;49.494;8.530;2022-12-07T14:30:58;11.25;;;5.10;;
27402;SDS011;14862;49.494;8.530;2022-12-07T14:33:24;8.98;;;4.88;;
27402;SDS011;14862;49.494;8.530;2022-12-07T14:35:50;8.65;;;4.90;;
27402;SDS011;14862;49.494;8.530;2022-12-07T14:38:20;8.63;;;5.13;;
27402;SDS011;14862;49.494;8.530;2022-12-07T14:40:45;7.25;;;4.90;;
27402;SDS011;14862;49.494;8.530;2022-12-07T14:43:11;13.43;;;5.30;;
27402;SDS011;14862;49.494;8.530;2022-12-07T14:45:37;11.20;;;4.95;;
27402;SDS011;14862;49.494;8.530;2022-12-07T14:48:02;7.10;;;4.43;;
27402;SDS011;14862;49.494;8.530;2022-12-07T14:50:27;14.02;;;4.07;;
27402;SDS011;14862;49.494;8.530;2022-12-07T14:52:58;7.47;;;4.50;;
27402;SDS011;14862;49.494;8.530;2022-12-07T14:55:25;8.52;;;3.67;;
27402;SDS011;14862;49.494;8.530;2022-12-07T14:57:51;6.72;;;3.55;;
27402;SDS011;14862;49.494;8.530;2022-12-07T15:00:16;7.22;;;3.85;;
27402;SDS011;14862;49.494;8.530;2022-12-07T15:02:42;6.10;;;3.30;;
27402;SDS011;14862;49.494;8.530;2022-12-07T15:05:08;7.32;;;3.58;;
27402;SDS011;14862;49.494;8.530;2022-12-07T15:07:33;5.32;;;3.35;;
27402;SDS011;14862;49.494;8.530;2022-12-07T15:09:58;7.82;;;3.60;;
27402;SDS011;14862;49.494;8.530;2022-12-07T15:12:23;4.50;;;3.00;;
27402;SDS011;14862;49.494;8.530;2022-12-07T15:14:49;6.85;;;3.10;;
27402;SDS011;14862;49.494;8.530;2022-12-07T15:17:15;14.13;;;3.95;;
27402;SDS011;14862;49.494;8.530;2022-12-07T15:19:40;8.15;;;3.83;;
27402;SDS011;14862;49.494;8.530;2022-12-07T15:22:05;8.75;;;3.50;;
27402;SDS011;14862;49.494;8.530;2022-12-07T15:24:30;11.80;;;4.32;;
27402;SDS011;14862;49.494;8.530;2022-12-07T15:26:56;10.25;;;4.93;;
27402;SDS011;14862;49.494;8.530;2022-12-07T15:29:21;6.22;;;4.05;;
27402;SDS011;14862;49.494;8.530;2022-12-07T15:31:48;12.50;;;4.45;;
27402;SDS011;14862;49.494;8.530;2022-12-07T15:34:13;6.25;;;4.00;;
27402;SDS011;14862;49.494;8.530;2022-12-07T15:36:38;7.60;;;4.53;;
27402;SDS011;14862;49.494;8.530;2022-12-07T15:39:04;9.52;;;4.82;;
27402;SDS011;14862;49.494;8.530;2022-12-07T15:41:29;7.90;;;3.83;;
27402;SDS011;14862;49.494;8.530;2022-12-07T15:43:54;8.02;;;4.07;;
27402;SDS011;14862;49.494;8.530;2022-12-07T15:46:39;7.40;;;4.25;;
27402;SDS011;14862;49.494;8.530;2022-12-07T15:49:12;7.10;;;4.40;;
27402;SDS011;14862;49.494;8.530;2022-12-07T15:51:38;9.40;;;4.60;;
27402;SDS011;14862;49.494;8.530;2022-12-07T15:54:03;6.10;;;4.18;;
27402;SDS011;14862;49.494;8.530;2022-12-07T15:56:28;7.20;;;4.70;;
27402;SDS011;14862;49.494;8.530;2022-12-07T15:58:55;10.07;;;4.05;;
27402;SDS011;14862;49.494;8.530;2022-12-07T16:01:20;8.68;;;4.75;;
27402;SDS011;14862;49.494;8.530;2022-12-07T16:03:46;8.50;;;4.50;;
27402;SDS011;14862;49.494;8.530;2022-12-07T16:06:11;9.05;;;4.72;;
27402;SDS011;14862;49.494;8.530;2022-12-07T16:08:37;9.93;;;4.95;;
27402;SDS011;14862;49.494;8.530;2022-12-07T16:11:06;9.38;;;5.45;;
27402;SDS011;14862;49.494;8.530;2022-12-07T16:13:32;9.93;;;5.75;;
27402;SDS011;14862;49.494;8.530;2022-12-07T16:15:57;10.52;;;5.78;;
27402;SDS011;14862;49.494;8.530;2022-12-07T16:18:22;11.55;;;6.82;;
27402;SDS011;14862;49.494;8.530;2022-12-07T16:20:48;14.68;;;7.30;;
27402;SDS011;14862;49.494;8.530;2022-12-07T16:23:14;10.93;;;6.50;;
27402;SDS011;14862;49.494;8.530;2022-12-07T16:25:39;17.25;;;8.23;;
27402;SDS011;14862;49.494;8.530;2022-12-07T16:28:04;12.55;;;7.03;;
27402;SDS011;14862;49.494;8.530;2022-12-07T16:30:29;16.75;;;7.07;;